Time;durP1;ratioP1;P1;durP2;ratioP2;P2;SDS_P1;SDS_P2;PMS_P1;PMS_P2;Temp;Humidity;BMP_temperature;BMP_pressure;BME280_temperature;BME280_humidity;BME280_pressure;Samples;Min_cycle;Max_cycle;Signal;HPM_P1;HPM_P2
2021/11/27 00:01:18;;;;;;;23.67;15.60;;;7.10;80.70;;;;;;5042587;28;20030;-60
2021/11/27 00:03:44;;;;;;;24.00;15.75;;;7.10;80.90;;;;;;5035552;28;20036;-60
2021/11/27 00:06:10;;;;;;;24.25;16.25;;;7.10;80.90;;;;;;5046637;28;20022;-60
2021/11/27 00:08:36;;;;;;;24.50;16.95;;;7.10;81.10;;;;;;5053030;28;20075;-59
2021/11/27 00:11:02;;;;;;;23.85;17.45;;;7.10;81.10;;;;;;5053608;28;20071;-60
2021/11/27 00:13:29;;;;;;;24.65;16.20;;;7.20;81.40;;;;;;5034351;28;20057;-57
2021/11/27 00:15:56;;;;;;;22.85;14.63;;;7.10;81.50;;;;;;5034186;28;20017;-60
2021/11/27 00:18:22;;;;;;;25.45;16.73;;;7.20;81.70;;;;;;5049386;28;20036;-61
2021/11/27 00:21:09;;;;;;;26.13;17.23;;;7.20;81.90;;;;;;5034114;28;20072;-59
2021/11/27 00:23:37;;;;;;;23.63;16.23;;;7.20;81.90;;;;;;5050669;28;20024;-60
2021/11/27 00:26:05;;;;;;;25.73;15.90;;;7.20;82.10;;;;;;5051613;28;20017;-61
2021/11/27 00:28:32;;;;;;;27.05;16.98;;;7.20;82.20;;;;;;5043764;28;20017;-60
2021/11/27 00:31:01;;;;;;;25.92;17.63;;;7.20;83.10;;;;;;5053965;28;20025;-60
2021/11/27 00:33:27;;;;;;;24.00;16.48;;;7.30;82.40;;;;;;5054317;28;20029;-59
2021/11/27 00:35:53;;;;;;;23.98;16.08;;;7.30;82.60;;;;;;5042287;28;20079;-60
2021/11/27 00:38:19;;;;;;;25.88;18.10;;;7.30;82.60;;;;;;5033889;28;20090;-61
2021/11/27 00:40:45;;;;;;;26.38;18.02;;;7.40;82.80;;;;;;5033374;28;20061;-60
2021/11/27 00:43:12;;;;;;;25.75;16.77;;;7.30;82.80;;;;;;5044721;28;20013;-61
2021/11/27 00:45:40;;;;;;;24.20;16.25;;;7.40;83.10;;;;;;5053098;28;20029;-60
2021/11/27 00:48:07;;;;;;;25.92;17.85;;;7.40;83.80;;;;;;5053553;28;20025;-58
2021/11/27 00:50:50;;;;;;;27.20;17.70;;;7.40;83.50;;;;;;5053752;28;20373;-60
2021/11/27 00:53:17;;;;;;;24.35;15.77;;;7.40;83.50;;;;;;5053655;28;20044;-59
2021/11/27 00:55:44;;;;;;;25.27;17.55;;;7.40;83.40;;;;;;5053374;28;20029;-61
2021/11/27 00:58:10;;;;;;;24.45;16.77;;;7.40;84.20;;;;;;5051944;28;20025;-60
2021/11/27 01:00:43;;;;;;;27.80;18.58;;;7.40;83.80;;;;;;5041727;28;20033;-61
2021/11/27 01:03:11;;;;;;;25.77;18.55;;;7.50;84.20;;;;;;5045791;28;20100;-60
2021/11/27 01:05:39;;;;;;;28.13;18.10;;;7.40;84.30;;;;;;5036873;28;20025;-60
2021/11/27 01:08:06;;;;;;;26.40;17.60;;;7.40;84.40;;;;;;5033362;28;20013;-61
2021/11/27 01:10:38;;;;;;;26.77;18.45;;;7.40;84.60;;;;;;5033472;28;20057;-60
2021/11/27 01:13:04;;;;;;;27.88;17.98;;;7.40;84.80;;;;;;5033711;28;20462;-59
2021/11/27 01:15:31;;;;;;;30.13;19.15;;;7.40;85.00;;;;;;5033177;28;20029;-60
2021/11/27 01:17:59;;;;;;;27.35;17.85;;;7.40;85.30;;;;;;5037098;28;20025;-60
2021/11/27 01:20:30;;;;;;;26.50;17.73;;;7.40;85.40;;;;;;5041846;28;20032;-59
2021/11/27 01:22:56;;;;;;;;;;;7.40;85.60;;;;;;5053691;28;20025;-60
2021/11/27 01:25:24;;;;;;;26.00;18.13;;;7.30;85.10;;;;;;5038750;28;19958;-61
2021/11/27 01:27:50;;;;;;;25.50;17.30;;;7.40;85.60;;;;;;5049439;28;20116;-60
2021/11/27 01:30:18;;;;;;;29.40;17.52;;;7.40;85.60;;;;;;5052316;28;20166;-60
2021/11/27 01:32:45;;;;;;;31.35;19.90;;;7.40;85.80;;;;;;5052117;28;20350;-60
2021/11/27 01:35:12;;;;;;;35.95;21.50;;;7.40;85.80;;;;;;5049086;28;20029;-60
2021/11/27 01:37:39;;;;;;;30.30;20.58;;;7.40;86.10;;;;;;5052911;28;20104;-61
2021/11/27 01:40:09;;;;;;;34.08;20.20;;;7.40;86.40;;;;;;5051218;28;20045;-60
2021/11/27 01:42:35;;;;;;;32.03;18.92;;;7.40;86.70;;;;;;5041731;28;20021;-60
2021/11/27 01:45:01;;;;;;;31.30;20.58;;;7.40;86.90;;;;;;5039207;28;20022;-60
2021/11/27 01:47:28;;;;;;;27.70;18.15;;;7.40;87.10;;;;;;5052565;28;20091;-61
2021/11/27 01:49:54;;;;;;;29.85;19.05;;;7.40;87.10;;;;;;5042506;28;20064;-60
2021/11/27 01:52:20;;;;;;;32.47;19.48;;;7.40;87.30;;;;;;5048186;28;20402;-60
2021/11/27 01:54:45;;;;;;;35.17;21.33;;;7.40;87.40;;;;;;5056409;28;20056;-60
2021/11/27 01:57:11;;;;;;;32.70;22.50;;;7.40;87.60;;;;;;5056600;28;20025;-59
2021/11/27 01:59:39;;;;;;;30.92;20.75;;;7.40;87.60;;;;;;5055753;28;20024;-60
2021/11/27 02:02:08;;;;;;;28.48;19.70;;;7.50;87.90;;;;;;5036586;28;20030;-60
2021/11/27 02:04:34;;;;;;;29.23;18.63;;;7.50;87.90;;;;;;5037402;28;20034;-60
2021/11/27 02:07:00;;;;;;;31.08;20.88;;;7.50;88.00;;;;;;5052432;28;20036;-59
2021/11/27 02:09:29;;;;;;;35.45;21.77;;;7.60;88.00;;;;;;5045930;28;20033;-60
2021/11/27 02:11:58;;;;;;;31.60;20.70;;;7.60;88.10;;;;;;5045913;28;20025;-60
2021/11/27 02:14:24;;;;;;;31.08;21.20;;;7.60;88.00;;;;;;5056085;28;20525;-61
2021/11/27 02:16:50;;;;;;;35.08;21.55;;;7.60;87.90;;;;;;5055980;28;20029;-60
2021/11/27 02:19:17;;;;;;;33.42;21.63;;;7.70;88.00;;;;;;5055895;28;20079;-61
2021/11/27 02:21:44;;;;;;;30.52;20.77;;;7.70;88.20;;;;;;5051136;28;20163;-60
2021/11/27 02:24:15;;;;;;;34.33;23.35;;;7.70;88.30;;;;;;5036228;28;20083;-61
2021/11/27 02:26:42;;;;;;;32.73;22.17;;;7.70;88.30;;;;;;5036656;28;20025;-59
2021/11/27 02:29:14;;;;;;;29.02;19.38;;;7.70;88.20;;;;;;5048918;28;20024;-60
2021/11/27 02:31:40;;;;;;;32.63;20.52;;;7.70;88.20;;;;;;5054635;28;20045;-60
2021/11/27 02:34:07;;;;;;;31.08;20.27;;;7.70;88.30;;;;;;5048287;28;20119;-61
2021/11/27 02:36:38;;;;;;;32.42;21.23;;;7.60;88.70;;;;;;5049590;28;20029;-60
2021/11/27 02:39:07;;;;;;;30.42;19.77;;;7.60;89.10;;;;;;5043894;28;20028;-60
2021/11/27 02:41:33;;;;;;;30.15;19.50;;;7.60;89.40;;;;;;5042187;28;20040;-60
2021/11/27 02:43:59;;;;;;;28.08;17.75;;;7.60;89.60;;;;;;5053735;28;20017;-60
2021/11/27 02:46:26;;;;;;;25.45;17.30;;;7.60;89.90;;;;;;5050518;28;20029;-59
2021/11/27 02:48:51;;;;;;;28.13;18.35;;;7.70;90.00;;;;;;5051932;28;20033;-60
2021/11/27 02:51:17;;;;;;;28.05;17.83;;;7.70;90.20;;;;;;5055444;28;20086;-60
2021/11/27 02:53:43;;;;;;;25.42;17.40;;;7.70;90.10;;;;;;5052644;28;20033;-60
2021/11/27 02:56:09;;;;;;;23.73;16.38;;;7.70;90.20;;;;;;5037630;28;20029;-61
2021/11/27 02:58:35;;;;;;;24.70;16.85;;;7.80;90.30;;;;;;5044509;28;20031;-60
2021/11/27 03:01:05;;;;;;;28.33;17.63;;;7.80;90.50;;;;;;5043915;28;20044;-60
2021/11/27 03:03:32;;;;;;;22.95;15.85;;;7.80;90.40;;;;;;5049932;28;20047;-61
2021/11/27 03:05:58;;;;;;;25.05;16.08;;;7.90;90.60;;;;;;5044838;28;20021;-60
2021/11/27 03:08:24;;;;;;;19.85;14.55;;;7.90;90.70;;;;;;5052751;28;20040;-60
2021/11/27 03:10:50;;;;;;;23.00;15.10;;;7.90;90.80;;;;;;5035004;28;20057;-59
2021/11/27 03:13:16;;;;;;;19.77;14.23;;;7.90;90.90;;;;;;5052682;28;20134;-59
2021/11/27 03:15:42;;;;;;;19.40;12.95;;;8.00;91.10;;;;;;5054901;28;20036;-59
2021/11/27 03:18:09;;;;;;;18.13;13.18;;;8.10;91.20;;;;;;5054780;28;20480;-59
2021/11/27 03:20:37;;;;;;;16.40;12.10;;;8.10;91.30;;;;;;5054871;28;20028;-61
2021/11/27 03:23:03;;;;;;;15.45;10.82;;;8.20;91.50;;;;;;5053563;28;20025;-60
2021/11/27 03:25:29;;;;;;;15.02;10.05;;;8.20;91.40;;;;;;5049271;28;20453;-61
2021/11/27 03:27:55;;;;;;;15.60;9.90;;;8.30;91.50;;;;;;5047546;28;20036;-61
2021/11/27 03:30:21;;;;;;;15.77;10.68;;;8.40;91.50;;;;;;5054668;28;20033;-60
2021/11/27 03:32:47;;;;;;;12.73;9.02;;;8.40;91.60;;;;;;5054554;28;20029;-61
2021/11/27 03:35:13;;;;;;;12.25;8.85;;;8.50;91.60;;;;;;5038259;28;20402;-61
2021/11/27 03:37:40;;;;;;;10.35;7.70;;;8.50;91.70;;;;;;5034472;28;20028;-61
2021/11/27 03:40:08;;;;;;;11.15;8.10;;;8.60;91.70;;;;;;5051894;28;20505;-61
2021/11/27 03:42:34;;;;;;;11.20;7.75;;;8.60;91.70;;;;;;5054494;28;20032;-61
2021/11/27 03:45:00;;;;;;;9.15;6.57;;;8.70;91.70;;;;;;5037564;28;20029;-61
2021/11/27 03:47:27;;;;;;;8.13;5.60;;;8.80;91.70;;;;;;5048012;28;20090;-60
2021/11/27 03:49:53;;;;;;;6.72;5.25;;;8.80;91.70;;;;;;5054245;28;20021;-59
2021/11/27 03:52:20;;;;;;;6.55;5.43;;;8.80;91.60;;;;;;5054229;28;20036;-60
2021/11/27 03:54:46;;;;;;;6.65;4.93;;;8.90;91.60;;;;;;5054080;28;20480;-61
2021/11/27 03:57:12;;;;;;;7.07;4.82;;;8.90;91.60;;;;;;5054212;28;20415;-60
2021/11/27 03:59:38;;;;;;;6.43;5.47;;;9.00;91.60;;;;;;5052828;28;20025;-61
2021/11/27 04:02:05;;;;;;;6.45;4.47;;;9.00;91.50;;;;;;5033242;28;20021;-60
2021/11/27 04:04:31;;;;;;;5.90;4.57;;;9.00;91.50;;;;;;5040626;28;20017;-59
2021/11/27 04:06:57;;;;;;;5.82;4.40;;;9.10;91.50;;;;;;5035414;28;20022;-59
2021/11/27 04:09:23;;;;;;;8.52;4.68;;;9.10;91.50;;;;;;5047655;28;20032;-59
2021/11/27 04:11:49;;;;;;;5.28;4.07;;;9.10;91.50;;;;;;5053474;28;20028;-60
2021/11/27 04:14:15;;;;;;;4.60;4.05;;;9.10;91.50;;;;;;5040591;28;20128;-61
2021/11/27 04:16:41;;;;;;;5.43;3.90;;;9.10;91.50;;;;;;5053674;28;20101;-61
2021/11/27 04:19:07;;;;;;;5.05;4.45;;;9.20;91.60;;;;;;5038733;28;20021;-61
2021/11/27 04:21:33;;;;;;;5.97;4.45;;;9.20;91.50;;;;;;5033651;28;20335;-59
2021/11/27 04:23:59;;;;;;;4.95;3.80;;;9.20;91.40;;;;;;5033607;28;20021;-61
2021/11/27 04:26:25;;;;;;;5.97;4.13;;;9.20;91.40;;;;;;5033767;28;20382;-61
2021/11/27 04:28:53;;;;;;;6.32;5.07;;;9.20;91.50;;;;;;5034726;28;20021;-60
2021/11/27 04:31:20;;;;;;;12.32;10.45;;;9.20;91.40;;;;;;5048036;28;20053;-61
2021/11/27 04:33:47;;;;;;;8.77;7.88;;;9.20;91.50;;;;;;5045679;28;20436;-61
2021/11/27 04:36:13;;;;;;;5.90;4.50;;;9.30;91.60;;;;;;5044615;28;20032;-60
2021/11/27 04:38:39;;;;;;;4.50;3.45;;;9.30;91.50;;;;;;5053843;28;20025;-60
2021/11/27 04:41:05;;;;;;;3.80;3.40;;;9.30;91.50;;;;;;5049985;28;20487;-60
2021/11/27 04:43:31;;;;;;;5.38;3.83;;;9.30;91.50;;;;;;5042258;28;20464;-59
2021/11/27 04:45:57;;;;;;;3.28;2.97;;;9.40;91.60;;;;;;5052515;28;20029;-60
2021/11/27 04:48:23;;;;;;;4.93;3.20;;;9.40;91.50;;;;;;5052466;28;20349;-61
2021/11/27 04:50:50;;;;;;;3.58;2.90;;;9.40;91.50;;;;;;5047012;28;20480;-60
2021/11/27 04:53:16;;;;;;;3.55;2.83;;;9.40;91.40;;;;;;5053485;28;20056;-61
2021/11/27 04:55:42;;;;;;;5.40;3.20;;;9.40;91.50;;;;;;5053361;28;20029;-61
2021/11/27 04:58:08;;;;;;;3.75;2.80;;;9.40;91.50;;;;;;5052529;28;20079;-61
2021/11/27 05:00:58;;;;;;;3.33;3.03;;;9.40;91.50;;;;;;5039727;28;20030;-60
2021/11/27 05:03:24;;;;;;;4.57;3.08;;;9.50;91.60;;;;;;5044564;28;20017;-60
2021/11/27 05:05:50;;;;;;;3.10;2.80;;;9.50;91.50;;;;;;5042141;28;20339;-61
2021/11/27 05:08:16;;;;;;;3.75;2.90;;;9.50;91.50;;;;;;5050593;28;20032;-60
2021/11/27 05:10:42;;;;;;;3.17;2.85;;;9.50;91.60;;;;;;5040849;28;20021;-61
2021/11/27 05:13:08;;;;;;;3.50;2.75;;;9.60;91.60;;;;;;5049793;28;20037;-60
2021/11/27 05:15:34;;;;;;;3.92;3.28;;;9.60;91.50;;;;;;5033248;28;20036;-61
2021/11/27 05:18:00;;;;;;;5.88;3.47;;;9.60;91.50;;;;;;5033351;28;20424;-60
2021/11/27 05:20:26;;;;;;;4.07;3.20;;;9.60;91.50;;;;;;5033421;28;20033;-59
2021/11/27 05:22:51;;;;;;;4.40;3.15;;;9.70;91.60;;;;;;5048488;28;20044;-60
2021/11/27 05:25:17;;;;;;;4.15;3.38;;;9.70;91.50;;;;;;5056018;28;20124;-61
2021/11/27 05:27:43;;;;;;;4.20;3.25;;;9.70;91.50;;;;;;5056945;28;20405;-60
2021/11/27 05:30:11;;;;;;;5.13;3.28;;;9.70;91.50;;;;;;5055843;28;20016;-61
2021/11/27 05:35:06;;;;;;;3.70;2.80;;;9.80;91.50;;;;;;5056410;28;20025;-60
2021/11/27 05:37:32;;;;;;;3.58;3.00;;;9.80;91.50;;;;;;5056468;28;20036;-60
2021/11/27 05:40:00;;;;;;;6.30;3.00;;;9.80;91.50;;;;;;5055493;28;20124;-60
2021/11/27 05:42:26;;;;;;;3.20;2.80;;;9.90;91.50;;;;;;5057015;28;20654;-60
2021/11/27 05:44:54;;;;;;;3.10;2.53;;;9.80;91.50;;;;;;5056631;28;20017;-60
2021/11/27 05:47:19;;;;;;;3.53;2.88;;;9.90;91.60;;;;;;5044931;28;20026;-60
2021/11/27 05:49:45;;;;;;;2.92;2.63;;;9.90;91.70;;;;;;5035615;28;20409;-60
2021/11/27 05:52:11;;;;;;;3.47;3.17;;;9.90;91.60;;;;;;5036619;28;20484;-61
2021/11/27 05:54:38;;;;;;;3.30;3.00;;;10.00;91.60;;;;;;5036579;28;20025;-60
2021/11/27 05:57:04;;;;;;;5.32;3.13;;;10.00;91.60;;;;;;5037014;28;20124;-61
2021/11/27 05:59:30;;;;;;;3.30;2.92;;;10.00;91.60;;;;;;5049263;28;20484;-60
2021/11/27 06:01:56;;;;;;;4.05;3.10;;;10.10;91.70;;;;;;5039193;28;20057;-60
2021/11/27 06:04:22;;;;;;;3.67;3.13;;;10.10;91.70;;;;;;5051429;28;20064;-61
2021/11/27 06:06:48;;;;;;;3.95;3.38;;;10.10;91.70;;;;;;5050895;28;20029;-60
2021/11/27 06:09:14;;;;;;;3.40;3.05;;;10.20;91.70;;;;;;5046592;28;20492;-61
2021/11/27 06:11:40;;;;;;;3.97;3.30;;;10.30;91.70;;;;;;5043613;28;20029;-61
2021/11/27 06:14:06;;;;;;;4.22;3.33;;;10.30;91.50;;;;;;5042791;28;20029;-61
2021/11/27 06:16:32;;;;;;;5.00;3.55;;;10.30;91.40;;;;;;5035722;28;20021;-60
2021/11/27 06:18:58;;;;;;;5.80;3.63;;;10.30;91.40;;;;;;5036173;28;20095;-61
2021/11/27 06:21:24;;;;;;;4.25;3.40;;;10.40;91.30;;;;;;5041769;28;20032;-61
2021/11/27 06:23:55;;;;;;;5.30;3.85;;;10.40;91.40;;;;;;5050624;28;20112;-61
2021/11/27 06:26:21;;;;;;;;;;;10.40;91.40;;;;;;5044204;28;20026;-61
2021/11/27 06:28:48;;;;;;;5.05;4.15;;;10.40;91.20;;;;;;5044530;28;20004;-60
2021/11/27 06:31:14;;;;;;;4.78;4.28;;;10.40;91.40;;;;;;5045567;28;20029;-60
2021/11/27 06:33:40;;;;;;;5.38;4.20;;;10.50;91.40;;;;;;5038609;28;20036;-61
2021/11/27 06:36:06;;;;;;;5.45;4.15;;;10.50;91.40;;;;;;5044317;28;20094;-61
2021/11/27 06:38:32;;;;;;;5.60;4.65;;;10.50;91.20;;;;;;5055648;28;20380;-61
2021/11/27 06:40:58;;;;;;;6.00;4.43;;;10.50;91.30;;;;;;5052051;28;20049;-60
2021/11/27 06:43:24;;;;;;;6.57;4.70;;;10.60;91.30;;;;;;5052010;28;20028;-60
2021/11/27 06:45:49;;;;;;;7.45;4.95;;;10.60;91.30;;;;;;5039058;28;20070;-61
2021/11/27 06:48:15;;;;;;;5.20;4.40;;;10.60;91.30;;;;;;5052594;28;20388;-60
2021/11/27 06:50:41;;;;;;;6.95;4.75;;;10.70;91.40;;;;;;5041169;28;20039;-61
2021/11/27 06:53:07;;;;;;;8.52;5.55;;;10.70;91.30;;;;;;5046880;28;20027;-61
2021/11/27 06:55:33;;;;;;;8.55;6.93;;;10.70;91.20;;;;;;5054526;28;20076;-60
2021/11/27 06:57:58;;;;;;;8.13;5.60;;;10.80;91.20;;;;;;5047120;28;20024;-61
2021/11/27 07:00:25;;;;;;;8.52;6.25;;;10.80;91.20;;;;;;5051942;28;20040;-61
2021/11/27 07:02:50;;;;;;;7.63;5.88;;;10.80;91.20;;;;;;5048824;28;20449;-61
2021/11/27 07:05:16;;;;;;;7.90;5.50;;;10.90;91.10;;;;;;5049551;28;20112;-61
2021/11/27 07:07:42;;;;;;;8.63;6.25;;;10.90;91.10;;;;;;5048851;28;20029;-61
2021/11/27 07:10:08;;;;;;;9.80;5.55;;;11.00;91.10;;;;;;5044274;28;20467;-59
2021/11/27 07:12:34;;;;;;;7.05;5.63;;;11.00;91.00;;;;;;5042197;28;20048;-61
2021/11/27 07:15:03;;;;;;;7.15;4.95;;;11.00;90.90;;;;;;5047402;28;20033;-59
2021/11/27 07:17:30;;;;;;;7.60;4.70;;;11.00;90.80;;;;;;5053605;28;20033;-60
2021/11/27 07:19:57;;;;;;;7.25;5.30;;;11.10;90.80;;;;;;5052720;28;20052;-60
2021/11/27 07:22:23;;;;;;;7.25;5.68;;;11.10;90.60;;;;;;5047692;28;20021;-61
2021/11/27 07:24:49;;;;;;;8.10;5.97;;;11.00;90.60;;;;;;5045376;28;20029;-61
2021/11/27 07:27:15;;;;;;;9.73;6.13;;;11.00;90.70;;;;;;5034647;28;20101;-61
2021/11/27 07:29:41;;;;;;;6.65;5.13;;;11.00;90.70;;;;;;5034559;28;20032;-61
2021/11/27 07:32:08;;;;;;;8.40;6.22;;;11.00;90.70;;;;;;5047272;28;20091;-60
2021/11/27 07:34:34;;;;;;;8.68;5.90;;;11.10;91.10;;;;;;5053358;28;20025;-61
2021/11/27 07:37:00;;;;;;;8.40;6.15;;;11.10;90.90;;;;;;5050029;28;20076;-60
2021/11/27 07:39:26;;;;;;;10.25;6.60;;;11.10;90.90;;;;;;5036498;28;20030;-60
2021/11/27 07:41:52;;;;;;;8.80;6.03;;;11.20;90.90;;;;;;5034893;28;20072;-61
2021/11/27 07:44:18;;;;;;;7.70;5.85;;;11.20;90.80;;;;;;5048017;28;20028;-61
2021/11/27 07:46:47;;;;;;;8.88;6.28;;;11.30;90.90;;;;;;5053039;28;20475;-61
2021/11/27 07:49:14;;;;;;;9.70;6.88;;;11.30;90.80;;;;;;5045674;28;20437;-61
2021/11/27 07:51:40;;;;;;;9.93;7.22;;;11.40;90.80;;;;;;5047062;28;20017;-59
2021/11/27 07:54:05;;;;;;;11.35;7.03;;;11.40;90.70;;;;;;5047328;28;20043;-59
2021/11/27 07:56:31;;;;;;;10.80;7.55;;;11.40;90.60;;;;;;5043439;28;20020;-61
2021/11/27 07:58:57;;;;;;;13.05;9.07;;;11.50;90.60;;;;;;5051254;28;20033;-61
2021/11/27 08:01:23;;;;;;;16.15;9.93;;;11.50;90.60;;;;;;5044755;28;20423;-61
2021/11/27 08:03:48;;;;;;;22.48;13.27;;;11.60;90.50;;;;;;5037508;28;20026;-60
2021/11/27 08:06:14;;;;;;;23.70;13.80;;;11.60;90.50;;;;;;5048792;28;20013;-61
2021/11/27 08:08:40;;;;;;;37.88;19.98;;;11.60;90.50;;;;;;5040069;28;20453;-60
2021/11/27 08:11:06;;;;;;;49.83;24.88;;;11.70;90.40;;;;;;5047155;28;20025;-60
2021/11/27 08:13:32;;;;;;;53.60;27.90;;;11.70;90.40;;;;;;5042604;28;20071;-61
2021/11/27 08:15:58;;;;;;;59.53;27.65;;;11.70;90.30;;;;;;5053374;28;20035;-60
2021/11/27 08:18:24;;;;;;;54.85;25.98;;;11.80;90.30;;;;;;5051246;28;20095;-61
2021/11/27 08:20:50;;;;;;;52.17;25.67;;;11.80;90.20;;;;;;5045094;28;20388;-61
2021/11/27 08:23:18;;;;;;;54.20;26.50;;;11.80;90.10;;;;;;5047895;28;20021;-61
2021/11/27 08:25:44;;;;;;;52.13;23.48;;;11.80;90.20;;;;;;5042253;28;20021;-61
2021/11/27 08:28:10;;;;;;;37.95;20.30;;;11.80;90.10;;;;;;5048336;28;20021;-61
2021/11/27 08:30:36;;;;;;;28.88;15.35;;;11.80;90.10;;;;;;5047718;28;20075;-61
2021/11/27 08:33:02;;;;;;;21.92;12.30;;;11.80;90.10;;;;;;5046774;28;20108;-61
2021/11/27 08:35:27;;;;;;;16.60;10.45;;;11.80;90.10;;;;;;5041576;28;20474;-61
2021/11/27 08:37:53;;;;;;;16.38;11.35;;;11.80;90.00;;;;;;5045777;28;20040;-61
2021/11/27 08:40:19;;;;;;;14.45;9.80;;;11.80;90.10;;;;;;5045374;28;20045;-61
2021/11/27 08:42:45;;;;;;;12.85;9.38;;;11.80;90.10;;;;;;5047706;28;20347;-61
2021/11/27 08:45:12;;;;;;;13.80;9.45;;;11.80;90.20;;;;;;5048597;28;20021;-61
2021/11/27 08:47:38;;;;;;;12.52;9.80;;;11.90;90.20;;;;;;5052907;28;20417;-61
2021/11/27 08:50:05;;;;;;;11.50;9.40;;;11.90;90.20;;;;;;5040245;28;20035;-61
2021/11/27 08:52:31;;;;;;;13.68;10.10;;;12.00;90.20;;;;;;5038031;28;20108;-61
2021/11/27 08:54:57;;;;;;;13.10;9.52;;;12.00;90.20;;;;;;5047135;28;20532;-61
2021/11/27 08:57:23;;;;;;;11.25;8.80;;;12.10;90.20;;;;;;5049608;28;20104;-61
2021/11/27 08:59:50;;;;;;;13.63;9.35;;;12.20;90.10;;;;;;5053885;28;20096;-61
2021/11/27 09:02:15;;;;;;;13.80;10.32;;;12.20;90.00;;;;;;5048104;28;20021;-61
2021/11/27 09:04:41;;;;;;;11.82;9.63;;;12.20;89.80;;;;;;5051462;28;20534;-61
2021/11/27 09:07:07;;;;;;;13.52;8.90;;;12.30;89.70;;;;;;5054309;28;20032;-61
2021/11/27 09:09:33;;;;;;;10.65;8.93;;;12.30;89.60;;;;;;5054675;28;20064;-61
2021/11/27 09:12:01;;;;;;;13.43;9.23;;;12.40;89.60;;;;;;5056087;28;20453;-61
2021/11/27 09:14:26;;;;;;;12.52;9.40;;;12.40;89.40;;;;;;5056618;28;20098;-61
2021/11/27 09:16:53;;;;;;;14.02;9.48;;;12.50;88.90;;;;;;5054201;28;20025;-61
2021/11/27 09:19:20;;;;;;;13.43;9.65;;;12.40;88.60;;;;;;5046229;28;20029;-61
2021/11/27 09:21:48;;;;;;;12.98;9.80;;;12.50;88.60;;;;;;5057098;28;20036;-61
2021/11/27 09:24:14;;;;;;;11.95;9.48;;;12.50;88.50;;;;;;5055647;28;20445;-61
2021/11/27 09:26:40;;;;;;;11.32;9.52;;;12.50;88.50;;;;;;5039573;28;20083;-61
2021/11/27 09:29:08;;;;;;;11.73;9.82;;;12.60;88.70;;;;;;5043757;28;20029;-61
2021/11/27 09:31:39;;;;;;;11.93;9.75;;;12.60;88.40;;;;;;5046264;28;20029;-61
2021/11/27 09:34:06;;;;;;;11.73;9.35;;;12.60;88.40;;;;;;5053511;28;20484;-61
2021/11/27 09:36:32;;;;;;;13.85;10.63;;;12.60;88.30;;;;;;5052719;28;20043;-61
2021/11/27 09:38:58;;;;;;;11.23;9.82;;;12.70;88.00;;;;;;5054078;28;20028;-61
2021/11/27 09:41:28;;;;;;;13.57;10.93;;;12.70;87.70;;;;;;5052064;28;20385;-61
2021/11/27 09:43:59;;;;;;;14.15;10.07;;;12.70;87.70;;;;;;5050200;28;20025;-61
2021/11/27 09:46:27;;;;;;;12.73;10.40;;;12.70;87.70;;;;;;5047486;28;20053;-61
2021/11/27 09:48:56;;;;;;;12.60;10.63;;;12.70;87.50;;;;;;5047422;28;20044;-59
2021/11/27 09:51:28;;;;;;;13.93;10.65;;;12.70;87.30;;;;;;5055927;28;20746;-61
2021/11/27 09:53:54;;;;;;;15.32;11.23;;;12.70;87.40;;;;;;5050899;28;20025;-60
2021/11/27 09:56:23;;;;;;;16.10;11.95;;;12.70;87.40;;;;;;5052333;28;20029;-61
2021/11/27 09:58:49;;;;;;;15.43;10.63;;;12.70;87.30;;;;;;5050289;28;20700;-61
2021/11/27 10:01:17;;;;;;;16.83;10.25;;;12.70;87.30;;;;;;5054886;28;20034;-61
2021/11/27 10:04:01;;;;;;;14.40;10.27;;;12.70;87.40;;;;;;5054664;28;20017;-61
2021/11/27 10:06:37;;;;;;;12.05;10.07;;;12.70;87.60;;;;;;5048267;28;20444;-59
2021/11/27 10:09:07;;;;;;;12.93;10.27;;;12.70;87.60;;;;;;5052084;28;20063;-59
2021/11/27 10:11:33;;;;;;;14.13;10.50;;;12.70;87.50;;;;;;5055978;28;20013;-59
2021/11/27 10:13:59;;;;;;;11.15;9.60;;;12.70;87.40;;;;;;5046900;28;20022;-60
2021/11/27 10:16:25;;;;;;;11.45;8.85;;;12.80;87.60;;;;;;5046103;28;20422;-61
2021/11/27 10:19:09;;;;;;;12.45;9.88;;;12.80;87.30;;;;;;5044314;28;20080;-61
2021/11/27 10:21:37;;;;;;;13.05;9.27;;;12.90;87.30;;;;;;5041849;28;20025;-61
2021/11/27 10:24:36;;;;;;;13.45;10.70;;;12.90;87.30;;;;;;5055685;28;20040;-61
2021/11/27 10:27:04;;;;;;;12.32;9.73;;;13.00;86.90;;;;;;5011412;28;20387;-61
2021/11/27 10:29:34;;;;;;;13.95;10.00;;;13.00;86.70;;;;;;5054078;28;20020;-59
2021/11/27 10:32:08;;;;;;;12.98;10.52;;;13.00;86.50;;;;;;5053665;28;20113;-59
2021/11/27 10:34:35;;;;;;;14.43;10.20;;;13.10;86.40;;;;;;5038831;28;20029;-59
2021/11/27 10:37:02;;;;;;;15.15;10.35;;;13.10;86.30;;;;;;5054399;28;20080;-59
2021/11/27 10:39:27;;;;;;;13.60;10.45;;;13.20;86.40;;;;;;5046071;28;20022;-59
2021/11/27 10:42:05;;;;;;;11.50;10.30;;;13.20;86.40;;;;;;5053252;28;20381;-59
2021/11/27 10:44:34;;;;;;;12.73;10.32;;;13.30;86.10;;;;;;5044530;28;20060;-59
2021/11/27 10:47:09;;;;;;;15.07;10.68;;;13.40;86.00;;;;;;5063534;28;20031;-61
2021/11/27 10:49:35;;;;;;;14.25;10.15;;;13.40;85.50;;;;;;5047252;28;20035;-59
2021/11/27 10:52:14;;;;;;;11.70;10.48;;;13.50;85.20;;;;;;5051231;28;20056;-59
2021/11/27 10:54:52;;;;;;;11.60;9.38;;;13.50;85.00;;;;;;5049022;28;20029;-59
2021/11/27 10:57:38;;;;;;;11.63;9.75;;;13.60;84.70;;;;;;5055206;28;20456;-60
2021/11/27 11:00:09;;;;;;;24.48;21.80;;;13.60;84.50;;;;;;5053517;28;20036;-59
2021/11/27 11:02:37;;;;;;;19.37;15.63;;;13.60;84.20;;;;;;5047801;28;20024;-59
2021/11/27 11:05:17;;;;;;;16.88;13.30;;;13.70;83.80;;;;;;5054512;28;20754;-59
2021/11/27 11:07:55;;;;;;;15.02;13.00;;;13.70;83.50;;;;;;5047150;28;20025;-62
2021/11/27 11:10:24;;;;;;;15.55;11.90;;;13.70;83.20;;;;;;5044865;28;20024;-59
2021/11/27 11:13:03;;;;;;;12.80;10.73;;;13.70;83.00;;;;;;5050300;28;20028;-62
2021/11/27 11:15:32;;;;;;;11.13;9.50;;;13.70;83.00;;;;;;5039219;28;20021;-60
2021/11/27 11:18:19;;;;;;;11.38;9.65;;;13.60;82.80;;;;;;5053571;28;20061;-59
2021/11/27 11:20:49;;;;;;;10.65;9.55;;;13.60;82.60;;;;;;5050817;28;20086;-59
2021/11/27 11:23:35;;;;;;;11.23;9.05;;;13.50;82.30;;;;;;5041445;28;20021;-59
2021/11/27 11:26:09;;;;;;;12.25;9.05;;;13.50;82.30;;;;;;5053845;28;20029;-59
2021/11/27 11:28:41;;;;;;;9.82;8.52;;;13.40;82.30;;;;;;5048033;28;20033;-60
2021/11/27 11:31:14;;;;;;;11.95;9.50;;;13.40;82.10;;;;;;5054238;28;20056;-60
2021/11/27 11:33:45;;;;;;;12.25;9.50;;;13.40;82.10;;;;;;5040683;28;20405;-59
2021/11/27 11:36:12;;;;;;;11.93;9.45;;;13.30;82.10;;;;;;5054365;28;20029;-59
2021/11/27 11:38:40;;;;;;;12.77;8.88;;;13.40;82.20;;;;;;5046193;28;20060;-58
2021/11/27 11:41:07;;;;;;;10.70;8.55;;;13.40;82.20;;;;;;5040086;28;20041;-59
2021/11/27 11:43:33;;;;;;;12.48;10.15;;;13.30;82.20;;;;;;5050878;28;20495;-59
2021/11/27 11:45:59;;;;;;;11.77;9.55;;;13.30;82.20;;;;;;5052813;28;20044;-59
2021/11/27 11:48:27;;;;;;;11.30;9.48;;;13.30;82.10;;;;;;5050749;28;20108;-59
2021/11/27 11:51:04;;;;;;;11.43;9.45;;;13.30;82.30;;;;;;5049028;28;20083;-59
2021/11/27 11:53:39;;;;;;;13.00;11.48;;;13.30;82.40;;;;;;5043772;28;20035;-59
2021/11/27 11:56:08;;;;;;;12.82;10.45;;;13.30;82.40;;;;;;5038866;28;20380;-59
2021/11/27 11:58:37;;;;;;;12.45;10.27;;;13.30;82.50;;;;;;5053755;28;20601;-59
2021/11/27 12:01:22;;;;;;;13.43;10.25;;;13.30;82.40;;;;;;5050155;28;20024;-59
2021/11/27 12:03:51;;;;;;;11.95;9.75;;;13.30;82.20;;;;;;5051152;28;20021;-59
2021/11/27 12:06:24;;;;;;;12.50;10.10;;;13.20;82.20;;;;;;5048313;28;20458;-60
2021/11/27 12:08:55;;;;;;;11.75;9.98;;;13.30;82.40;;;;;;5053483;28;20453;-59
2021/11/27 12:11:39;;;;;;;11.65;9.93;;;13.30;82.20;;;;;;5053401;28;20465;-59
2021/11/27 12:14:26;;;;;;;11.70;9.38;;;13.30;82.10;;;;;;5049676;28;20028;-59
2021/11/27 12:17:17;;;;;;;10.57;8.80;;;13.30;82.00;;;;;;5051773;28;20025;-60
2021/11/27 12:19:46;;;;;;;;;;;13.30;81.90;;;;;;5054118;28;20037;-59
2021/11/27 12:22:23;;;;;;;12.98;9.95;;;13.20;82.00;;;;;;5042080;28;20300;-59
2021/11/27 12:25:26;;;;;;;12.07;10.23;;;13.20;82.00;;;;;;5053099;28;20381;-59
2021/11/27 12:28:02;;;;;;;12.38;9.85;;;13.30;81.90;;;;;;5042870;28;20040;-60
2021/11/27 12:30:50;;;;;;;12.32;9.40;;;13.20;81.80;;;;;;5043662;28;20385;-61
2021/11/27 12:33:44;;;;;;;14.15;11.65;;;13.20;81.80;;;;;;5043727;28;20059;-59
2021/11/27 12:36:41;;;;;;;16.23;10.65;;;13.20;81.90;;;;;;5049432;28;20032;-60
2021/11/27 12:39:08;;;;;;;11.90;10.60;;;13.20;81.90;;;;;;5040478;28;20033;-59
2021/11/27 12:41:46;;;;;;;14.65;12.20;;;13.20;82.00;;;;;;5051372;28;20420;-57
2021/11/27 12:44:21;;;;;;;13.40;10.63;;;13.20;82.10;;;;;;5045411;28;20055;-59
2021/11/27 12:47:01;;;;;;;14.23;11.27;;;13.20;82.00;;;;;;5044710;28;20420;-58
2021/11/27 12:49:33;;;;;;;11.93;10.65;;;13.20;82.10;;;;;;5041671;28;20018;-59